Terminal Aerodrome Forecast
Issued by NWS

Home | Current Version | Previous Version | Text Only | Print | Product List | Glossary On
Versions: 1 2 3 4 5 6 7 8 9 10 11 12 13
000
FTUS46 KLOX 041128
TAFPRB
TAF
KPRB 041128Z 0412/0512 VRB03KT P6SM SKC
     FM041400 VRB03KT 1/2SM FG VV001
     FM041500 VRB03KT 2SM BR OVC004
     FM041600 VRB03KT P6SM SCT008
     FM041900 22012KT P6SM SKC
     FM042200 22017G25KT P6SM SKC
     FM050400 22010KT P6SM SKC
     FM050600 VRB03KT P6SM SKC=

USA.gov is the U.S. government's official web portal to all federal, state and local government web resources and services.